createdAt,value
2018-02-23T00:00:30.620Z,102056.72
2018-02-23T00:02:56.847Z,102056.72
2018-02-23T00:05:23.030Z,102057.55
2018-02-23T00:07:49.194Z,102056.02
2018-02-23T00:10:15.405Z,102054.30
2018-02-23T00:12:41.558Z,102052.02
2018-02-23T00:15:07.748Z,102051.86
2018-02-23T00:17:33.936Z,102043.22
2018-02-23T00:20:00.109Z,102042.68
2018-02-23T00:22:38.544Z,102042.86
2018-02-23T00:25:04.739Z,102040.16
2018-02-23T00:27:30.894Z,102039.35
2018-02-23T00:29:57.137Z,102038.32
2018-02-23T00:32:23.290Z,102037.78
2018-02-23T00:34:49.491Z,102035.33
2018-02-23T00:37:15.684Z,102041.88
2018-02-23T00:39:41.847Z,102044.34
2018-02-23T00:42:08.011Z,102045.55
2018-02-23T00:44:34.237Z,102044.05
2018-02-23T00:47:00.402Z,102041.72
2018-02-23T00:49:26.525Z,102045.60
2018-02-23T00:51:52.706Z,102049.69
2018-02-23T00:54:18.926Z,102048.78
2018-02-23T00:56:45.206Z,102048.33
2018-02-23T00:59:11.467Z,102045.23
2018-02-23T01:01:37.701Z,102047.23
2018-02-23T01:04:03.868Z,102050.32
2018-02-23T01:06:30.080Z,102049.07
2018-02-23T01:08:56.301Z,102047.62
2018-02-23T01:11:22.507Z,102045.11
2018-02-23T01:13:48.697Z,102049.91
2018-02-23T01:16:14.930Z,102040.66
2018-02-23T01:18:41.084Z,102037.11
2018-02-23T01:21:07.241Z,102041.48
2018-02-23T01:23:33.455Z,102037.19
2018-02-23T01:25:59.680Z,102037.48
2018-02-23T01:28:25.938Z,102048.95
2018-02-23T01:30:52.107Z,102035.16
2018-02-23T01:33:18.315Z,102025.14
2018-02-23T01:35:44.546Z,102028.86
2018-02-23T01:38:10.708Z,102020.78
2018-02-23T01:40:36.846Z,102019.15
2018-02-23T01:43:03.072Z,102017.61
2018-02-23T01:45:29.296Z,102015.36
2018-02-23T01:47:55.457Z,102010.98
2018-02-23T01:50:21.635Z,102015.77
2018-02-23T01:52:47.840Z,102012.28
2018-02-23T01:55:14.069Z,102011.86
2018-02-23T01:57:40.291Z,102003.69
2018-02-23T02:00:06.545Z,102000.27
2018-02-23T02:02:32.679Z,102002.94
2018-02-23T02:04:58.918Z,102007.61
2018-02-23T02:07:25.046Z,102005.52
2018-02-23T02:09:51.210Z,102013.15
2018-02-23T02:12:17.388Z,102008.81
2018-02-23T02:14:43.650Z,102007.94
2018-02-23T02:17:09.812Z,101998.98
2018-02-23T02:19:36.012Z,102002.81
2018-02-23T02:22:02.256Z,101994.56
2018-02-23T02:24:28.425Z,101996.98
2018-02-23T02:26:54.640Z,102001.57
2018-02-23T02:29:27.781Z,102003.28
2018-02-23T02:31:53.935Z,102002.61
2018-02-23T02:34:20.140Z,101995.61
2018-02-23T02:36:46.363Z,102001.16
2018-02-23T02:39:12.511Z,101994.36
2018-02-23T02:41:38.706Z,101995.11
2018-02-23T02:44:04.883Z,101991.65
2018-02-23T02:46:31.090Z,101997.19
2018-02-23T02:48:57.380Z,102001.31
2018-02-23T02:51:23.519Z,101994.28
2018-02-23T02:53:49.692Z,101991.27
2018-02-23T02:56:15.914Z,101988.45
2018-02-23T02:58:42.112Z,101988.98
2018-02-23T03:01:08.278Z,101991.44
2018-02-23T03:03:34.416Z,101985.81
2018-02-23T03:06:00.645Z,101981.11
2018-02-23T03:08:26.798Z,101987.81
2018-02-23T03:10:52.940Z,101982.15
2018-02-23T03:13:19.117Z,101985.69
2018-02-23T03:15:45.365Z,101984.90
2018-02-23T03:18:11.511Z,101981.06
2018-02-23T03:20:37.638Z,101985.69
2018-02-23T03:23:03.804Z,101983.86
2018-02-23T03:25:30.050Z,101983.39
2018-02-23T03:27:56.200Z,101988.19
2018-02-23T03:30:22.396Z,101983.77
2018-02-23T03:32:48.603Z,101983.19
2018-02-23T03:35:14.798Z,101980.81
2018-02-23T03:37:40.944Z,101986.86
2018-02-23T03:40:07.226Z,101984.10
2018-02-23T03:42:33.343Z,101984.10
2018-02-23T03:44:59.791Z,101980.06
2018-02-23T03:47:26.031Z,101979.31
2018-02-23T03:49:52.179Z,101982.69
2018-02-23T03:52:18.333Z,101980.98
2018-02-23T03:54:44.517Z,101983.77
2018-02-23T03:57:10.748Z,101976.14
2018-02-23T03:59:36.937Z,101972.27
2018-02-23T04:02:03.082Z,101977.06
2018-02-23T04:04:29.276Z,101983.65
2018-02-23T04:06:55.493Z,101983.31
2018-02-23T04:09:21.625Z,101981.48
2018-02-23T04:11:47.790Z,101980.44
2018-02-23T04:14:14.007Z,101979.19
2018-02-23T04:16:40.215Z,101983.48
2018-02-23T04:19:06.358Z,101982.36
2018-02-23T04:21:32.523Z,101984.15
2018-02-23T04:23:58.718Z,101980.61
2018-02-23T04:26:24.901Z,101984.02
2018-02-23T04:28:51.093Z,101976.02
2018-02-23T04:31:24.112Z,101982.48
2018-02-23T04:33:50.306Z,101978.10
2018-02-23T04:36:16.558Z,101981.93
2018-02-23T04:38:42.693Z,101976.31
2018-02-23T04:41:08.847Z,101982.35
2018-02-23T04:43:35.053Z,101978.89
2018-02-23T04:46:01.277Z,101981.52
2018-02-23T04:48:27.421Z,101982.81
2018-02-23T04:50:53.550Z,101989.31
2018-02-23T04:53:19.720Z,101981.93
2018-02-23T04:55:45.909Z,101980.72
2018-02-23T04:58:12.133Z,101977.60
2018-02-23T05:00:38.322Z,101984.05
2018-02-23T05:03:04.460Z,101983.64
2018-02-23T05:05:30.707Z,101994.47
2018-02-23T05:07:56.906Z,101995.72
2018-02-23T05:10:23.064Z,101997.77
2018-02-23T05:12:49.225Z,101995.05
2018-02-23T05:15:15.378Z,101995.84
2018-02-23T05:17:41.619Z,101994.64
2018-02-23T05:20:07.812Z,101984.55
2018-02-23T05:22:33.945Z,101990.92
2018-02-23T05:25:00.124Z,101987.00
2018-02-23T05:27:26.319Z,101989.59
2018-02-23T05:29:52.537Z,101983.88
2018-02-23T05:32:19.097Z,101988.59
2018-02-23T05:34:45.316Z,101985.67
2018-02-23T05:37:11.501Z,101988.45
2018-02-23T05:39:37.756Z,101988.41
2018-02-23T05:42:03.915Z,101989.84
2018-02-23T05:44:30.096Z,101995.91
2018-02-23T05:46:56.320Z,101996.62
2018-02-23T05:49:22.536Z,102002.11
2018-02-23T05:51:48.710Z,102010.73
2018-02-23T05:54:14.884Z,102004.61
2018-02-23T05:56:41.088Z,102010.73
2018-02-23T05:59:07.243Z,102009.48
2018-02-23T06:01:33.385Z,102010.31
2018-02-23T06:03:59.563Z,102013.22
2018-02-23T06:06:25.775Z,102008.94
2018-02-23T06:08:51.915Z,102008.10
2018-02-23T06:11:18.039Z,102007.73
2018-02-23T06:13:44.216Z,102008.14
2018-02-23T06:16:16.616Z,102007.60
2018-02-23T06:18:48.928Z,102005.02
2018-02-23T06:21:15.149Z,102004.89
2018-02-23T06:23:41.340Z,102007.02
2018-02-23T06:26:07.588Z,102004.56
2018-02-23T06:28:33.755Z,101997.86
2018-02-23T06:30:59.904Z,102000.48
2018-02-23T06:33:26.086Z,102010.81
2018-02-23T06:35:52.289Z,102005.61
2018-02-23T06:38:18.469Z,102000.25
2018-02-23T06:40:44.667Z,102004.16
2018-02-23T06:43:10.863Z,102007.91
2018-02-23T06:45:37.061Z,102012.53
2018-02-23T06:48:03.193Z,102013.98
2018-02-23T06:50:29.375Z,102006.90
2018-02-23T06:52:55.515Z,102010.77
2018-02-23T06:55:21.676Z,102008.48
2018-02-23T06:57:48.926Z,102015.35
2018-02-23T07:00:15.102Z,102016.64
2018-02-23T07:02:41.346Z,102016.19
2018-02-23T07:05:07.512Z,102019.64
2018-02-23T07:07:33.746Z,102019.77
2018-02-23T07:09:59.891Z,102017.36
2018-02-23T07:12:26.077Z,102018.10
2018-02-23T07:14:52.208Z,102014.31
2018-02-23T07:17:18.420Z,102023.53
2018-02-23T07:19:44.724Z,102018.41
2018-02-23T07:22:10.852Z,102024.29
2018-02-23T07:24:37.012Z,102024.05
2018-02-23T07:27:03.249Z,102031.09
2018-02-23T07:29:29.400Z,102028.80
2018-02-23T07:31:55.524Z,102028.80
2018-02-23T07:34:21.753Z,102028.14
2018-02-23T07:36:48.084Z,102031.35
2018-02-23T07:39:14.344Z,102026.39
2018-02-23T07:41:40.540Z,102027.81
2018-02-23T07:44:06.731Z,102034.02
2018-02-23T07:46:32.973Z,102035.91
2018-02-23T07:48:59.133Z,102036.74
2018-02-23T07:51:25.358Z,102034.53
2018-02-23T07:53:51.535Z,102035.75
2018-02-23T07:56:17.981Z,102040.04
2018-02-23T07:58:44.246Z,102034.82
2018-02-23T08:01:10.501Z,102040.48
2018-02-23T08:03:36.744Z,102038.23
2018-02-23T08:06:03.010Z,102031.42
2018-02-23T08:08:29.190Z,102033.64
2018-02-23T08:10:55.340Z,102030.82
2018-02-23T08:13:21.568Z,102041.79
2018-02-23T08:15:47.762Z,102035.90
2018-02-23T08:18:13.968Z,102031.00
2018-02-23T08:20:40.128Z,102026.09
2018-02-23T08:23:06.282Z,102027.20
2018-02-23T08:25:32.426Z,102021.17
2018-02-23T08:27:58.660Z,102022.36
2018-02-23T08:30:24.885Z,102024.92
2018-02-23T08:32:51.090Z,102020.31
2018-02-23T08:35:17.256Z,102023.13
2018-02-23T08:37:43.442Z,102015.73
2018-02-23T08:40:09.599Z,102020.59
2018-02-23T08:42:35.792Z,102022.32
2018-02-23T08:45:01.979Z,102022.98
2018-02-23T08:47:28.166Z,102009.23
2018-02-23T08:49:54.312Z,102009.25
2018-02-23T08:52:20.486Z,102006.77
2018-02-23T08:54:46.682Z,102008.99
2018-02-23T08:57:12.904Z,101998.52
2018-02-23T08:59:39.045Z,102003.29
2018-02-23T09:02:05.599Z,101996.80
2018-02-23T09:04:31.815Z,101996.50
2018-02-23T09:06:58.279Z,102001.97
2018-02-23T09:09:24.424Z,102000.20
2018-02-23T09:11:50.607Z,101991.28
2018-02-23T09:14:16.739Z,101993.53
2018-02-23T09:16:42.963Z,101989.31
2018-02-23T09:19:09.161Z,101989.72
2018-02-23T09:21:35.332Z,101995.17
2018-02-23T09:24:01.630Z,101991.50
2018-02-23T09:26:27.964Z,101989.55
2018-02-23T09:28:54.122Z,101986.92
2018-02-23T09:31:20.340Z,101987.64
2018-02-23T09:33:59.033Z,101984.03
2018-02-23T09:36:25.367Z,101980.52
2018-02-23T09:38:51.531Z,101980.48
2018-02-23T09:41:17.673Z,101981.84
2018-02-23T09:43:43.898Z,101982.89
2018-02-23T09:46:10.114Z,101973.72
2018-02-23T09:48:36.308Z,101980.98
2018-02-23T09:51:02.607Z,101973.97
2018-02-23T09:53:28.764Z,101979.09
2018-02-23T09:55:54.964Z,101974.58
2018-02-23T09:58:21.171Z,101972.48
2018-02-23T10:00:47.331Z,101970.89
2018-02-23T10:03:13.472Z,101969.43
2018-02-23T10:05:39.698Z,101974.65
2018-02-23T10:08:06.137Z,101967.65
2018-02-23T10:10:32.276Z,101956.41
2018-02-23T10:12:58.519Z,101959.03
2018-02-23T10:15:24.730Z,101956.11
2018-02-23T10:17:50.949Z,101962.20
2018-02-23T10:20:17.126Z,101963.94
2018-02-23T10:22:43.316Z,101970.78
2018-02-23T10:25:09.472Z,101968.09
2018-02-23T10:27:35.711Z,101959.90
2018-02-23T10:30:01.932Z,101952.47
2018-02-23T10:32:28.058Z,101952.95
2018-02-23T10:34:54.262Z,101954.63
2018-02-23T10:37:20.420Z,101956.61
2018-02-23T10:39:46.589Z,101944.85
2018-02-23T10:42:12.773Z,101950.45
2018-02-23T10:44:38.930Z,101940.20
2018-02-23T10:47:05.102Z,101935.39
2018-02-23T10:49:31.240Z,101940.86
2018-02-23T10:51:57.396Z,101934.69
2018-02-23T10:54:23.569Z,101940.17
2018-02-23T10:56:49.816Z,101932.84
2018-02-23T10:59:16.079Z,101925.88
2018-02-23T11:01:42.305Z,101934.71
2018-02-23T11:04:08.503Z,101920.91
2018-02-23T11:06:34.724Z,101931.70
2018-02-23T11:09:00.857Z,101925.51
2018-02-23T11:11:27.039Z,101920.97
2018-02-23T11:13:53.230Z,101918.64
2018-02-23T11:16:19.436Z,101918.61
2018-02-23T11:18:45.603Z,101917.09
2018-02-23T11:21:11.771Z,101912.30
2018-02-23T11:23:37.984Z,101910.75
2018-02-23T11:26:04.456Z,101897.91
2018-02-23T11:28:30.636Z,101910.58
2018-02-23T11:30:56.820Z,101905.91
2018-02-23T11:33:22.970Z,101908.70
2018-02-23T11:35:49.160Z,101904.53
2018-02-23T11:38:15.347Z,101907.66
2018-02-23T11:40:41.568Z,101904.22
2018-02-23T11:45:42.853Z,101910.81
2018-02-23T11:48:09.991Z,101904.56
2018-02-23T11:50:36.162Z,101895.01
2018-02-23T11:53:02.360Z,101892.89
2018-02-23T11:55:28.575Z,101896.39
2018-02-23T11:58:00.811Z,101897.64
2018-02-23T12:00:27.026Z,101908.28
2018-02-23T12:02:53.182Z,101891.25
2018-02-23T12:05:19.412Z,101892.03
2018-02-23T12:07:45.615Z,101888.78
2018-02-23T12:10:11.811Z,101885.88
2018-02-23T12:12:38.016Z,101878.42
2018-02-23T12:15:04.190Z,101878.96
2018-02-23T12:17:30.414Z,101885.41
2018-02-23T12:19:56.540Z,101875.60
2018-02-23T12:22:22.691Z,101862.01
2018-02-23T12:24:48.911Z,101868.29
2018-02-23T12:27:15.147Z,101869.25
2018-02-23T12:29:41.376Z,101861.25
2018-02-23T12:32:07.515Z,101855.16
2018-02-23T12:34:33.678Z,101847.45
2018-02-23T12:36:59.928Z,101851.02
2018-02-23T12:39:26.101Z,101857.91
2018-02-23T12:41:52.357Z,101845.78
2018-02-23T12:44:18.532Z,101842.78
2018-02-23T12:46:44.650Z,101849.70
2018-02-23T12:49:10.888Z,101849.28
2018-02-23T12:51:37.074Z,101843.28
2018-02-23T12:54:03.340Z,101847.20
2018-02-23T12:56:29.504Z,101829.07
2018-02-23T12:58:55.749Z,101830.23
2018-02-23T13:01:21.892Z,101826.05
2018-02-23T13:03:48.041Z,101830.56
2018-02-23T13:06:14.264Z,101822.73
2018-02-23T13:08:40.488Z,101823.05
2018-02-23T13:11:06.688Z,101818.78
2018-02-23T13:13:32.855Z,101823.30
2018-02-23T13:15:59.000Z,101817.82
2018-02-23T13:18:25.196Z,101811.08
2018-02-23T13:20:51.332Z,101809.24
2018-02-23T13:23:17.456Z,101822.95
2018-02-23T13:25:43.560Z,101815.30
2018-02-23T13:28:15.763Z,101809.09
2018-02-23T13:30:41.890Z,101807.96
2018-02-23T13:33:08.015Z,101814.16
2018-02-23T13:35:34.185Z,101807.56
2018-02-23T13:38:00.316Z,101806.98
2018-02-23T13:40:30.440Z,101807.48
2018-02-23T13:42:56.619Z,101809.64
2018-02-23T13:45:22.756Z,101804.56
2018-02-23T13:47:48.935Z,101792.84
2018-02-23T13:50:15.026Z,101789.94
2018-02-23T13:52:41.173Z,101791.25
2018-02-23T13:55:07.359Z,101794.94
2018-02-23T13:57:33.518Z,101792.00
2018-02-23T13:59:59.668Z,101781.93
2018-02-23T14:02:25.812Z,101774.06
2018-02-23T14:04:51.898Z,101776.56
2018-02-23T14:07:23.836Z,101777.88
2018-02-23T14:09:50.024Z,101778.14
2018-02-23T14:12:16.178Z,101781.03
2018-02-23T14:14:42.335Z,101772.59
2018-02-23T14:17:08.567Z,101780.77
2018-02-23T14:19:34.794Z,101777.00
2018-02-23T14:22:00.924Z,101769.34
2018-02-23T14:24:27.061Z,101764.84
2018-02-23T14:26:53.305Z,101766.67
2018-02-23T14:29:19.436Z,101771.88
2018-02-23T14:31:45.552Z,101780.61
2018-02-23T14:34:11.689Z,101774.24
2018-02-23T14:36:37.785Z,101776.96
2018-02-23T14:39:04.795Z,101775.08
2018-02-23T14:41:30.930Z,101771.68
2018-02-23T14:43:57.043Z,101765.02
2018-02-23T14:46:23.196Z,101773.38
2018-02-23T14:49:01.570Z,101764.73
2018-02-23T14:51:27.679Z,101762.39
2018-02-23T14:53:53.806Z,101751.16
2018-02-23T14:56:19.935Z,101748.20
2018-02-23T14:58:46.087Z,101745.16
2018-02-23T15:01:12.187Z,101744.47
2018-02-23T15:03:38.331Z,101753.44
2018-02-23T15:06:04.462Z,101740.83
2018-02-23T15:08:30.666Z,101746.95
2018-02-23T15:10:56.796Z,101752.23
2018-02-23T15:13:23.070Z,101747.47
2018-02-23T15:15:49.176Z,101745.89
2018-02-23T15:18:15.360Z,101749.73
2018-02-23T15:20:41.456Z,101746.14
2018-02-23T15:23:07.577Z,101743.22
2018-02-23T15:25:33.719Z,101737.73
2018-02-23T15:27:59.867Z,101736.73
2018-02-23T15:30:38.173Z,101742.19
2018-02-23T15:33:04.285Z,101740.04
2018-02-23T15:35:30.417Z,101744.17
2018-02-23T15:37:57.315Z,101739.41
2018-02-23T15:40:23.505Z,101737.48
2018-02-23T15:42:49.606Z,101728.98
2018-02-23T15:45:15.773Z,101732.41
2018-02-23T15:47:42.016Z,101731.98
2018-02-23T15:53:11.289Z,101734.20
2018-02-23T15:55:37.477Z,101722.39
2018-02-23T15:58:23.516Z,101733.14
2018-02-23T16:00:49.781Z,101729.56
2018-02-23T16:03:15.997Z,101733.81
2018-02-23T16:05:49.102Z,101732.53
2018-02-23T16:08:15.350Z,101722.48
2018-02-23T16:10:41.506Z,101730.70
2018-02-23T16:13:07.730Z,101725.19
2018-02-23T16:15:33.903Z,101725.21
2018-02-23T16:18:00.264Z,101726.27
2018-02-23T16:20:26.408Z,101730.48
2018-02-23T16:22:52.584Z,101729.87
2018-02-23T16:25:18.767Z,101741.80
2018-02-23T16:27:45.028Z,101735.08
2018-02-23T16:30:11.202Z,101730.70
2018-02-23T16:32:37.357Z,101733.19
2018-02-23T16:35:03.545Z,101732.57
2018-02-23T16:37:29.667Z,101733.02
2018-02-23T16:39:55.865Z,101726.81
2018-02-23T16:42:22.030Z,101723.24
2018-02-23T16:44:48.232Z,101732.38
2018-02-23T16:47:14.398Z,101735.20
2018-02-23T16:49:40.560Z,101737.28
2018-02-23T16:52:06.756Z,101744.94
2018-02-23T16:54:32.884Z,101751.71
2018-02-23T16:56:59.113Z,101744.20
2018-02-23T16:59:25.307Z,101742.27
2018-02-23T17:01:51.467Z,101751.64
2018-02-23T17:04:17.636Z,101749.05
2018-02-23T17:06:43.801Z,101751.98
2018-02-23T17:09:10.034Z,101752.73
2018-02-23T17:11:36.223Z,101754.25
2018-02-23T17:14:02.417Z,101751.66
2018-02-23T17:16:28.768Z,101756.91
2018-02-23T17:18:54.954Z,101759.37
2018-02-23T17:21:21.185Z,101758.71
2018-02-23T17:23:47.385Z,101760.70
2018-02-23T17:26:13.556Z,101757.53
2018-02-23T17:28:39.731Z,101756.50
2018-02-23T17:31:05.880Z,101760.47
2018-02-23T17:33:32.044Z,101763.39
2018-02-23T17:35:58.205Z,101759.60
2018-02-23T17:38:24.509Z,101758.80
2018-02-23T17:40:50.653Z,101755.52
2018-02-23T17:43:16.817Z,101760.36
2018-02-23T17:45:43.076Z,101757.44
2018-02-23T17:48:09.315Z,101754.72
2018-02-23T17:50:35.966Z,101755.20
2018-02-23T17:53:02.148Z,101749.38
2018-02-23T17:55:28.384Z,101753.85
2018-02-23T17:57:54.608Z,101754.69
2018-02-23T18:00:20.811Z,101762.56
2018-02-23T18:02:46.964Z,101765.00
2018-02-23T18:05:13.201Z,101766.72
2018-02-23T18:07:39.348Z,101770.73
2018-02-23T18:10:05.890Z,101776.09
2018-02-23T18:12:32.181Z,101772.98
2018-02-23T18:14:58.359Z,101774.53
2018-02-23T18:17:24.602Z,101778.95
2018-02-23T18:19:50.808Z,101784.27
2018-02-23T18:22:16.904Z,101773.57
2018-02-23T18:24:43.042Z,101781.22
2018-02-23T18:27:09.223Z,101778.95
2018-02-23T18:29:35.448Z,101785.22
2018-02-23T18:32:01.566Z,101781.06
2018-02-23T18:34:27.664Z,101787.02
2018-02-23T18:36:53.844Z,101788.57
2018-02-23T18:39:20.058Z,101787.81
2018-02-23T18:41:46.189Z,101791.14
2018-02-23T18:44:12.367Z,101784.55
2018-02-23T18:46:38.472Z,101780.95
2018-02-23T18:49:04.805Z,101782.59
2018-02-23T18:51:30.919Z,101783.75
2018-02-23T18:53:57.159Z,101799.09
2018-02-23T18:56:23.377Z,101791.77
2018-02-23T18:58:49.633Z,101793.52
2018-02-23T19:01:15.904Z,101797.38
2018-02-23T19:03:42.063Z,101796.84
2018-02-23T19:06:08.282Z,101793.45
2018-02-23T19:08:34.541Z,101793.84
2018-02-23T19:11:00.784Z,101794.08
2018-02-23T19:13:27.741Z,101799.58
2018-02-23T19:15:54.768Z,101794.30
2018-02-23T19:18:20.998Z,101795.06
2018-02-23T19:20:47.242Z,101796.36
2018-02-23T19:23:13.486Z,101799.52
2018-02-23T19:25:39.764Z,101795.87
2018-02-23T19:28:06.045Z,101801.50
2018-02-23T19:30:32.292Z,101804.41
2018-02-23T19:32:58.517Z,101795.27
2018-02-23T19:35:24.819Z,101797.55
2018-02-23T19:37:51.084Z,101797.44
2018-02-23T19:40:17.344Z,101803.50
2018-02-23T19:42:43.707Z,101795.59
2018-02-23T19:45:10.244Z,101800.23
2018-02-23T19:47:36.595Z,101800.94
2018-02-23T19:50:03.172Z,101794.70
2018-02-23T19:52:29.336Z,101802.89
2018-02-23T19:54:55.460Z,101798.09
2018-02-23T19:57:21.665Z,101801.00
2018-02-23T19:59:47.956Z,101798.72
2018-02-23T20:02:14.149Z,101799.53
2018-02-23T20:04:40.416Z,101800.37
2018-02-23T20:07:06.563Z,101791.20
2018-02-23T20:09:32.841Z,101797.00
2018-02-23T20:11:58.974Z,101795.70
2018-02-23T20:14:25.219Z,101783.91
2018-02-23T20:16:51.398Z,101799.30
2018-02-23T20:19:17.668Z,101797.97
2018-02-23T20:21:43.840Z,101801.36
2018-02-23T20:24:10.172Z,101800.80
2018-02-23T20:26:36.395Z,101797.27
2018-02-23T20:29:02.656Z,101796.50
2018-02-23T20:31:28.884Z,101796.00
2018-02-23T20:33:55.051Z,101794.33
2018-02-23T20:36:21.282Z,101801.98
2018-02-23T20:38:47.520Z,101808.07
2018-02-23T20:41:14.134Z,101808.03
2018-02-23T20:43:40.742Z,101813.28
2018-02-23T20:46:07.072Z,101804.05
2018-02-23T20:48:33.347Z,101809.84
2018-02-23T20:50:59.600Z,101811.89
2018-02-23T20:53:25.923Z,101816.92
2018-02-23T20:55:52.153Z,101811.60
2018-02-23T20:58:18.391Z,101811.52
2018-02-23T21:00:44.614Z,101809.19
2018-02-23T21:03:10.861Z,101807.75
2018-02-23T21:05:37.387Z,101797.83
2018-02-23T21:08:03.589Z,101804.56
2018-02-23T21:10:29.824Z,101803.77
2018-02-23T21:12:56.004Z,101800.75
2018-02-23T21:15:22.177Z,101803.23
2018-02-23T21:17:48.530Z,101800.88
2018-02-23T21:20:14.721Z,101804.20
2018-02-23T21:22:40.879Z,101799.70
2018-02-23T21:25:07.082Z,101802.56
2018-02-23T21:27:33.312Z,101793.05
2018-02-23T21:29:59.523Z,101795.68
2018-02-23T21:32:25.675Z,101798.23
2018-02-23T21:34:51.883Z,101796.02
2018-02-23T21:37:18.104Z,101800.70
2018-02-23T21:39:44.327Z,101792.53
2018-02-23T21:42:10.519Z,101789.83
2018-02-23T21:44:45.789Z,101794.77
2018-02-23T21:47:11.960Z,101792.53
2018-02-23T21:49:38.335Z,101796.79
2018-02-23T21:52:04.571Z,101795.73
2018-02-23T21:54:30.791Z,101792.12
2018-02-23T21:56:57.114Z,101791.59
2018-02-23T21:59:23.360Z,101803.60
2018-02-23T22:01:49.622Z,101795.73
2018-02-23T22:04:15.852Z,101799.08
2018-02-23T22:06:42.011Z,101799.39
2018-02-23T22:09:08.206Z,101791.06
2018-02-23T22:11:34.449Z,101792.35
2018-02-23T22:14:00.676Z,101792.77
2018-02-23T22:16:26.853Z,101790.03
2018-02-23T22:18:53.023Z,101790.34
2018-02-23T22:21:19.245Z,101787.64
2018-02-23T22:23:45.422Z,101794.41
2018-02-23T22:26:11.580Z,101796.80
2018-02-23T22:28:37.772Z,101796.80
2018-02-23T22:31:04.018Z,101802.31
2018-02-23T22:33:30.158Z,101798.66
2018-02-23T22:35:56.417Z,101807.37
2018-02-23T22:38:22.762Z,101802.65
2018-02-23T22:40:49.102Z,101810.79
2018-02-23T22:43:15.447Z,101817.47
2018-02-23T22:45:41.698Z,101814.62
2018-02-23T22:48:08.026Z,101821.34
2018-02-23T22:50:34.297Z,101814.31
2018-02-23T22:53:00.426Z,101813.81
2018-02-23T22:55:26.563Z,101814.91
2018-02-23T22:57:52.818Z,101813.20
2018-02-23T23:00:19.050Z,101818.33
2018-02-23T23:02:45.237Z,101817.04
2018-02-23T23:05:11.459Z,101814.34
2018-02-23T23:07:37.595Z,101819.42
2018-02-23T23:10:03.818Z,101816.72
2018-02-23T23:12:29.946Z,101813.41
2018-02-23T23:14:56.118Z,101814.66
2018-02-23T23:17:22.304Z,101817.96
2018-02-23T23:19:48.543Z,101808.50
2018-02-23T23:22:14.773Z,101826.02
2018-02-23T23:24:40.953Z,101830.77
2018-02-23T23:27:07.201Z,101827.14
2018-02-23T23:29:33.447Z,101833.27
2018-02-23T23:31:59.569Z,101833.72
2018-02-23T23:34:25.716Z,101825.59
2018-02-23T23:36:51.957Z,101820.84
2018-02-23T23:39:18.245Z,101818.80
2018-02-23T23:41:44.468Z,101821.27
2018-02-23T23:44:10.697Z,101823.84
2018-02-23T23:46:36.850Z,101815.30
2018-02-23T23:49:02.983Z,101810.97
2018-02-23T23:51:29.140Z,101817.23
2018-02-23T23:53:55.367Z,101814.19
2018-02-23T23:56:21.515Z,101820.98
2018-02-23T23:58:47.738Z,101830.82
